createdAt,value
2022-12-03T00:04:13.037Z,42.67
2022-12-03T00:09:14.760Z,44.80
2022-12-03T00:14:17.868Z,52.15
2022-12-03T00:19:19.556Z,51.60
2022-12-03T00:24:21.264Z,45.50
2022-12-03T00:29:24.334Z,53.70
2022-12-03T00:34:26.106Z,47.30
2022-12-03T00:39:27.801Z,47.80
2022-12-03T00:44:30.905Z,55.63
2022-12-03T00:49:32.630Z,51.28
2022-12-03T00:54:34.402Z,46.40
2022-12-03T00:59:37.499Z,44.55
2022-12-03T01:04:39.157Z,50.55
2022-12-03T01:09:40.861Z,50.88
2022-12-03T01:14:43.970Z,51.37
2022-12-03T01:19:48.386Z,46.90
2022-12-03T01:24:50.956Z,43.95
2022-12-03T01:29:54.361Z,49.25
2022-12-03T01:34:56.720Z,50.20
2022-12-03T01:39:58.614Z,49.38
2022-12-03T01:45:03.073Z,48.85
2022-12-03T01:50:15.376Z,45.50
2022-12-03T01:55:20.358Z,51.53
2022-12-03T02:00:25.467Z,60.55
2022-12-03T02:05:28.929Z,46.97
2022-12-03T02:10:34.186Z,51.20
2022-12-03T02:15:39.674Z,55.12
2022-12-03T02:20:52.611Z,54.95
2022-12-03T02:25:55.744Z,47.67
2022-12-03T02:30:57.524Z,48.05
2022-12-03T02:36:03.486Z,49.15
2022-12-03T02:41:10.745Z,56.97
2022-12-03T02:46:12.562Z,41.28
2022-12-03T02:51:14.334Z,46.88
2022-12-03T02:56:19.899Z,41.15
2022-12-03T03:01:21.699Z,46.63
2022-12-03T03:06:24.040Z,53.17
2022-12-03T03:11:27.327Z,49.60
2022-12-03T03:16:29.179Z,45.00
2022-12-03T03:21:31.032Z,43.60
2022-12-03T03:26:34.134Z,48.53
2022-12-03T03:31:36.185Z,43.70
2022-12-03T03:36:38.422Z,42.10
2022-12-03T03:41:42.269Z,40.60
2022-12-03T03:46:46.570Z,40.37
2022-12-03T03:51:48.410Z,37.83
2022-12-03T03:56:51.853Z,44.65
2022-12-03T04:01:53.636Z,36.38
2022-12-03T04:06:55.386Z,37.53
2022-12-03T04:11:58.472Z,42.72
2022-12-03T04:17:00.281Z,43.72
2022-12-03T04:22:02.074Z,40.03
2022-12-03T04:27:05.195Z,36.08
2022-12-03T04:32:07.132Z,37.65
2022-12-03T04:37:09.309Z,33.58
2022-12-03T04:42:12.393Z,35.72
2022-12-03T04:47:15.481Z,39.63
2022-12-03T04:52:19.394Z,37.65
2022-12-03T04:57:22.608Z,31.60
2022-12-03T05:02:24.378Z,33.70
2022-12-03T05:07:26.148Z,31.98
2022-12-03T05:12:29.233Z,36.95
2022-12-03T05:17:30.944Z,30.00
2022-12-03T05:22:32.713Z,32.80
2022-12-03T05:27:35.795Z,32.70
2022-12-03T05:32:37.428Z,31.45
2022-12-03T05:37:39.171Z,27.85
2022-12-03T05:42:42.380Z,33.42
2022-12-03T05:47:44.114Z,33.30
2022-12-03T05:52:46.142Z,31.52
2022-12-03T05:57:49.374Z,28.58
2022-12-03T06:02:52.028Z,36.08
2022-12-03T06:07:53.958Z,34.45
2022-12-03T06:12:57.315Z,34.53
2022-12-03T06:18:00.907Z,34.78
2022-12-03T06:23:02.622Z,32.20
2022-12-03T06:28:05.783Z,33.47
2022-12-03T06:33:07.499Z,31.05
2022-12-03T06:38:09.211Z,33.10
2022-12-03T06:43:12.356Z,28.87
2022-12-03T06:48:14.035Z,29.08
2022-12-03T06:53:15.816Z,31.90
2022-12-03T06:58:18.957Z,37.40
2022-12-03T07:03:20.728Z,32.45
2022-12-03T07:08:22.493Z,34.80
2022-12-03T07:13:25.608Z,32.70
2022-12-03T07:18:27.279Z,33.85
2022-12-03T07:23:28.987Z,31.75
2022-12-03T07:28:32.204Z,33.35
2022-12-03T07:33:33.940Z,30.65
2022-12-03T07:38:35.779Z,34.78
2022-12-03T07:43:38.892Z,30.65
2022-12-03T07:48:40.621Z,30.45
2022-12-03T07:53:42.318Z,32.90
2022-12-03T07:58:45.343Z,31.15
2022-12-03T08:03:47.019Z,30.02
2022-12-03T08:08:48.729Z,43.85
2022-12-03T08:13:51.831Z,32.17
2022-12-03T08:18:55.509Z,36.03
2022-12-03T08:23:58.019Z,24.20
2022-12-03T08:29:01.308Z,35.30
2022-12-03T08:34:15.984Z,35.90
2022-12-03T08:39:29.202Z,36.53
2022-12-03T08:44:38.581Z,34.13
2022-12-03T08:49:40.665Z,35.60
2022-12-03T08:54:42.918Z,30.83
2022-12-03T08:59:46.683Z,40.58
2022-12-03T09:04:48.447Z,34.73
2022-12-03T09:09:50.243Z,32.45
2022-12-03T09:14:53.499Z,34.25
2022-12-03T09:19:55.369Z,39.42
2022-12-03T09:24:57.034Z,34.15
2022-12-03T09:30:00.295Z,34.10
2022-12-03T09:35:02.081Z,37.83
2022-12-03T09:40:04.351Z,34.20
2022-12-03T09:45:11.226Z,37.90
2022-12-03T09:50:33.523Z,35.92
2022-12-03T09:55:35.232Z,35.58
2022-12-03T10:00:38.465Z,37.75
2022-12-03T10:05:45.153Z,37.75
2022-12-03T10:10:52.851Z,35.75
2022-12-03T10:15:58.831Z,40.90
2022-12-03T10:21:00.755Z,42.47
2022-12-03T10:26:03.659Z,40.20
2022-12-03T10:31:08.403Z,37.65
2022-12-03T10:41:24.188Z,44.95
2022-12-03T10:46:27.532Z,46.47
2022-12-03T10:51:30.219Z,43.42
2022-12-03T10:56:32.158Z,40.90
2022-12-03T11:01:35.596Z,46.10
2022-12-03T11:06:37.353Z,41.88
2022-12-03T11:11:39.146Z,42.42
2022-12-03T11:17:09.635Z,39.00
2022-12-03T11:22:25.819Z,43.80
2022-12-03T11:27:27.541Z,45.88
2022-12-03T11:33:00.263Z,46.55
2022-12-03T11:38:35.547Z,41.92
2022-12-03T11:49:34.189Z,46.08
2022-12-03T11:54:35.942Z,41.70
2022-12-03T11:59:57.021Z,43.60
2022-12-03T12:05:15.982Z,54.55
2022-12-03T12:10:40.237Z,47.95
2022-12-03T12:15:43.660Z,46.10
2022-12-03T12:20:51.818Z,50.42
2022-12-03T12:25:54.495Z,50.92
2022-12-03T12:30:56.737Z,52.13
2022-12-03T12:36:02.511Z,46.97
2022-12-03T12:41:07.617Z,49.10
2022-12-03T12:46:45.490Z,46.60
2022-12-03T12:51:38.009Z,54.80
2022-12-03T12:56:42.451Z,55.28
2022-12-03T13:01:46.451Z,48.35
2022-12-03T13:06:53.945Z,34.83
2022-12-03T13:11:58.283Z,59.55
2022-12-03T13:17:01.785Z,47.45
2022-12-03T13:22:15.542Z,49.47
2022-12-03T13:27:24.584Z,52.38
2022-12-03T13:32:30.670Z,51.22
2022-12-03T13:37:33.909Z,58.10
2022-12-03T13:42:36.607Z,59.58
2022-12-03T13:47:38.343Z,57.70
2022-12-03T13:52:41.514Z,54.58
2022-12-03T13:57:43.261Z,51.97
2022-12-03T14:02:45.062Z,60.03
2022-12-03T14:07:48.445Z,61.50
2022-12-03T14:12:50.260Z,56.92
2022-12-03T14:17:52.229Z,54.92
2022-12-03T14:22:59.341Z,52.05
2022-12-03T14:28:01.435Z,49.80
2022-12-03T14:33:03.172Z,51.63
2022-12-03T14:38:06.232Z,52.97
2022-12-03T14:43:07.979Z,51.85
2022-12-03T14:48:09.657Z,56.60
2022-12-03T14:53:12.858Z,54.83
2022-12-03T14:58:14.552Z,59.88
2022-12-03T15:03:16.337Z,58.45
2022-12-03T15:08:19.626Z,54.30
2022-12-03T15:13:21.491Z,56.75
2022-12-03T15:18:23.253Z,57.78
2022-12-03T15:23:26.581Z,54.53
2022-12-03T15:28:28.356Z,51.22
2022-12-03T15:33:30.112Z,56.58
2022-12-03T15:38:33.246Z,58.60
2022-12-03T15:43:34.978Z,54.60
2022-12-03T15:48:36.663Z,55.38
2022-12-03T15:53:40.223Z,51.40
2022-12-03T15:58:42.189Z,57.72
2022-12-03T16:03:43.894Z,58.30
2022-12-03T16:08:46.949Z,52.78
2022-12-03T16:13:48.652Z,62.55
2022-12-03T16:18:50.447Z,58.28
2022-12-03T16:23:53.594Z,59.97
2022-12-03T16:28:55.341Z,58.70
2022-12-03T16:33:57.072Z,58.13
2022-12-03T16:39:00.091Z,58.65
2022-12-03T16:44:01.804Z,50.42
2022-12-03T16:49:03.590Z,55.08
2022-12-03T16:54:07.022Z,57.45
2022-12-03T16:59:08.811Z,56.30
2022-12-03T17:04:10.543Z,56.67
2022-12-03T17:09:13.592Z,56.65
2022-12-03T17:14:15.319Z,50.88
2022-12-03T17:19:17.269Z,58.20
2022-12-03T17:24:20.731Z,52.92
2022-12-03T17:29:22.568Z,52.90
2022-12-03T17:34:24.312Z,49.90
2022-12-03T17:39:27.548Z,55.38
2022-12-03T17:44:29.248Z,57.40
2022-12-03T17:49:31.854Z,66.72
2022-12-03T17:55:02.031Z,65.62
2022-12-03T17:59:57.349Z,82.88
2022-12-03T18:04:59.143Z,68.95
2022-12-03T18:10:02.200Z,60.90
2022-12-03T18:15:04.684Z,60.97
2022-12-03T18:20:07.571Z,66.07
2022-12-03T18:25:11.817Z,62.08
2022-12-03T18:30:13.824Z,56.20
2022-12-03T18:35:15.626Z,128.23
2022-12-03T18:40:20.784Z,75.22
2022-12-03T18:45:23.789Z,101.00
2022-12-03T18:50:25.570Z,62.92
2022-12-03T18:55:33.732Z,58.80
2022-12-03T19:00:36.886Z,60.22
2022-12-03T19:05:38.632Z,58.03
2022-12-03T19:10:42.655Z,60.12
2022-12-03T19:15:44.397Z,59.83
2022-12-03T19:20:46.049Z,58.30
2022-12-03T19:25:56.584Z,61.55
2022-12-03T19:31:00.641Z,53.95
2022-12-03T19:36:04.264Z,55.33
2022-12-03T19:41:09.058Z,60.03
2022-12-03T19:46:12.015Z,46.63
2022-12-03T19:51:33.716Z,54.38
2022-12-03T19:56:37.269Z,55.83
2022-12-03T20:01:40.109Z,48.85
2022-12-03T20:06:42.260Z,52.08
2022-12-03T20:11:45.593Z,51.50
2022-12-03T20:16:47.445Z,54.70
2022-12-03T20:21:49.257Z,54.53
2022-12-03T20:26:52.439Z,41.50
2022-12-03T20:31:54.267Z,43.38
2022-12-03T20:36:56.025Z,51.22
2022-12-03T20:41:59.175Z,42.00
2022-12-03T20:47:00.914Z,39.55
2022-12-03T20:52:04.527Z,38.70
2022-12-03T20:57:07.925Z,48.63
2022-12-03T21:02:10.292Z,45.92
2022-12-03T21:07:12.190Z,44.28
2022-12-03T21:12:15.308Z,36.95
2022-12-03T21:17:17.391Z,45.08
2022-12-03T21:22:19.202Z,43.75
2022-12-03T21:27:22.301Z,45.95
2022-12-03T21:32:24.072Z,45.70
2022-12-03T21:37:25.855Z,45.08
2022-12-03T21:42:35.941Z,48.15
2022-12-03T21:47:38.985Z,43.45
2022-12-03T21:52:41.241Z,41.72
2022-12-03T21:57:44.391Z,48.30
2022-12-03T22:02:46.257Z,49.33
2022-12-03T22:07:48.154Z,46.15
2022-12-03T22:12:51.335Z,49.88
2022-12-03T22:17:53.111Z,43.35
2022-12-03T22:22:54.877Z,42.22
2022-12-03T22:27:58.667Z,45.72
2022-12-03T22:33:00.678Z,46.83
2022-12-03T22:38:02.475Z,43.63
2022-12-03T22:43:05.667Z,41.20
2022-12-03T22:48:07.376Z,46.30
2022-12-03T22:53:09.067Z,45.40
2022-12-03T22:58:12.387Z,40.30
2022-12-03T23:03:14.360Z,46.28
2022-12-03T23:08:18.583Z,47.13
2022-12-03T23:13:21.659Z,41.83
2022-12-03T23:18:23.533Z,48.70
2022-12-03T23:23:26.939Z,45.12
2022-12-03T23:28:32.051Z,39.15
2022-12-03T23:33:38.105Z,40.88
2022-12-03T23:38:40.619Z,44.25
2022-12-03T23:43:44.241Z,42.22
2022-12-03T23:48:46.332Z,39.45
2022-12-03T23:53:48.039Z,39.40
2022-12-03T23:58:51.201Z,35.65
